Time;durP1;ratioP1;P1;durP2;ratioP2;P2;SDS_P1;SDS_P2;PMS_P1;PMS_P2;Temp;Humidity;BMP_temperature;BMP_pressure;BME280_temperature;BME280_humidity;BME280_pressure;Samples;Min_cycle;Max_cycle;Signal;HPM_P1;HPM_P2
2022/03/10 00:02:18;;;;;;;;;21.75;19.00;;;;;9.30;53.30;101175.91;4998674;28;45329;-82
2022/03/10 00:04:43;;;;;;;;;23.00;20.50;;;;;9.24;53.26;101166.25;4984740;28;45826;-82
2022/03/10 00:07:08;;;;;;;;;24.50;21.00;;;;;9.24;53.78;101174.16;4980331;28;45282;-81
2022/03/10 00:09:34;;;;;;;;;21.00;19.00;;;;;9.24;53.87;101184.72;4979866;28;45547;-80
2022/03/10 00:12:00;;;;;;;;;29.50;20.00;;;;;9.23;53.51;101178.56;4978728;28;45528;-80
2022/03/10 00:14:26;;;;;;;;;24.75;18.25;;;;;9.21;53.94;101179.47;4991111;28;45377;-80
2022/03/10 00:16:51;;;;;;;;;21.50;21.50;;;;;9.13;54.13;101166.31;4995460;28;45587;-81
2022/03/10 00:19:17;;;;;;;;;23.25;18.25;;;;;9.11;54.44;101167.19;4997259;28;45462;-81
2022/03/10 00:21:43;;;;;;;;;27.25;21.50;;;;;9.06;54.02;101168.09;4978292;28;45342;-81
2022/03/10 00:24:09;;;;;;;;;25.50;21.50;;;;;9.03;54.37;101168.13;4996120;28;45514;-80
2022/03/10 00:26:34;;;;;;;;;27.75;24.00;;;;;9.06;54.32;101175.13;4995750;28;45366;-81
2022/03/10 00:28:59;;;;;;;;;21.25;19.50;;;;;9.03;54.07;101165.50;4991191;28;46214;-81
2022/03/10 00:31:25;;;;;;;;;29.00;24.00;;;;;9.03;54.78;101169.88;4999614;28;45441;-81
2022/03/10 00:33:50;;;;;;;;;30.75;23.50;;;;;8.99;54.69;101171.66;4997174;28;45527;-81
2022/03/10 00:36:16;;;;;;;;;26.50;20.75;;;;;8.95;54.52;101167.25;4996224;28;45489;-81
2022/03/10 00:38:42;;;;;;;;;22.75;21.00;;;;;8.98;54.86;101174.28;4993328;28;45493;-80
2022/03/10 00:41:09;;;;;;;;;23.00;21.75;;;;;8.94;54.45;101181.31;4963507;28;45660;-82
2022/03/10 00:43:34;;;;;;;;;27.25;23.50;;;;;8.91;55.55;101183.97;4981388;28;45459;-81
2022/03/10 00:45:59;;;;;;;;;30.50;22.50;;;;;8.86;55.18;101183.97;4977541;28;46175;-80
2022/03/10 00:48:25;;;;;;;;;23.00;23.00;;;;;8.85;55.45;101181.34;4976572;28;46203;-81
2022/03/10 00:50:50;;;;;;;;;16.00;15.50;;;;;8.79;55.45;101178.72;4978869;28;45366;-81
2022/03/10 00:53:16;;;;;;;;;25.00;23.00;;;;;8.82;56.02;101191.91;4981402;28;45400;-81
2022/03/10 00:55:41;;;;;;;;;27.50;22.50;;;;;8.75;55.86;101192.81;4995939;28;45488;-81
2022/03/10 00:58:07;;;;;;;;;25.25;21.50;;;;;8.76;55.91;101194.56;4979894;28;47332;-82
2022/03/10 01:00:32;;;;;;;;;16.50;14.25;;;;;8.74;55.40;101194.56;4996921;28;45384;-80
2022/03/10 01:02:58;;;;;;;;;27.75;25.75;;;;;8.69;56.16;101191.06;4977622;28;45512;-81
2022/03/10 01:05:24;;;;;;;;;31.00;28.00;;;;;8.65;55.21;101190.19;4996710;28;45500;-81
2022/03/10 01:07:50;;;;;;;;;27.50;22.00;;;;;8.64;56.09;101182.28;4997779;28;46530;-81
2022/03/10 01:10:18;;;;;;;;;24.75;22.00;;;;;8.60;55.90;101185.81;4996713;28;45540;-81
2022/03/10 01:12:45;;;;;;;;;26.75;24.50;;;;;8.56;55.83;101184.94;4997229;28;45408;-81
2022/03/10 01:15:15;;;;;;;;;32.00;23.00;;;;;8.56;55.84;101187.56;4982491;28;45512;-82
2022/03/10 01:17:41;;;;;;;;;23.00;21.50;;;;;8.57;55.88;101191.09;4976003;28;45875;-82
2022/03/10 01:20:07;;;;;;;;;29.50;24.50;;;;;8.52;55.72;101189.34;4975550;28;45534;-79
2022/03/10 01:22:34;;;;;;;;;30.25;20.00;;;;;8.49;55.69;101186.72;4976253;28;45514;-80
2022/03/10 01:25:00;;;;;;;;;27.00;23.50;;;;;8.47;56.01;101190.22;4977901;28;45390;-80
2022/03/10 01:27:25;;;;;;;;;24.00;22.25;;;;;8.44;54.90;101188.50;4982755;28;45509;-80
2022/03/10 01:29:50;;;;;;;;;27.25;26.00;;;;;8.36;55.77;101184.94;4976194;28;45536;-81
2022/03/10 01:32:15;;;;;;;;;24.25;20.50;;;;;8.36;55.15;101183.19;4976352;28;45551;-80
2022/03/10 01:34:41;;;;;;;;;17.50;17.50;;;;;8.38;55.46;101184.94;4975001;28;45334;-81
2022/03/10 01:37:06;;;;;;;;;30.00;26.50;;;;;8.38;55.35;101190.22;4977855;28;45581;-81
2022/03/10 01:39:32;;;;;;;;;5.25;2.25;;;;;8.32;55.52;101181.44;4986294;28;45482;-80
2022/03/10 01:41:58;;;;;;;;;26.75;24.25;;;;;8.30;56.03;101183.19;4998190;28;45389;-81
2022/03/10 01:44:24;;;;;;;;;22.00;20.25;;;;;8.29;55.39;101188.44;5000403;28;45508;-79
2022/03/10 01:46:49;;;;;;;;;26.75;21.25;;;;;8.24;55.10;101172.66;4999125;28;46157;-81
2022/03/10 01:49:15;;;;;;;;;20.50;14.50;;;;;8.22;55.44;101173.56;4978911;28;45679;-80
2022/03/10 01:51:41;;;;;;;;;25.75;18.75;;;;;8.21;55.85;101180.56;4994723;28;45445;-79
2022/03/10 01:54:07;;;;;;;;;28.25;24.25;;;;;8.19;55.33;101180.56;4996968;28;45572;-80
2022/03/10 01:56:33;;;;;;;;;19.50;18.00;;;;;8.15;55.61;101175.28;4997352;28;45503;-81
2022/03/10 01:59:02;;;;;;;;;27.00;24.25;;;;;8.08;55.97;101166.53;4967770;28;45423;-81
2022/03/10 02:01:28;;;;;;;;;26.25;19.00;;;;;8.12;55.77;101172.66;4983348;28;45327;-81
2022/03/10 02:03:56;;;;;;;;;30.25;21.00;;;;;8.10;55.30;101172.66;4998123;28;45310;-80
2022/03/10 02:06:21;;;;;;;;;25.00;19.00;;;;;8.06;55.91;101172.66;4984055;28;45588;-80
2022/03/10 02:11:31;;;;;;;;;23.50;20.00;;;;;8.05;56.56;101176.16;4961547;28;45453;-80
2022/03/10 02:13:56;;;;;;;;;27.50;21.75;;;;;8.00;55.65;101178.81;4987127;28;45515;-76
2022/03/10 02:19:05;;;;;;;;;27.50;22.00;;;;;7.98;55.56;101170.91;4995185;28;45455;-76
2022/03/10 02:21:31;;;;;;;;;20.00;14.50;;;;;7.94;56.30;101163.00;4994607;28;45483;-76
2022/03/10 02:23:56;;;;;;;;;27.75;18.75;;;;;7.90;56.10;101162.16;4995602;28;45475;-76
2022/03/10 02:26:22;;;;;;;;;20.75;19.25;;;;;7.93;55.85;101166.53;4995128;28;45582;-77
2022/03/10 02:28:49;;;;;;;;;21.25;16.25;;;;;7.85;55.42;101163.91;4993022;28;45491;-75
2022/03/10 02:31:14;;;;;;;;;19.00;18.00;;;;;7.74;55.43;101142.81;4994044;28;45380;-77
2022/03/10 02:33:41;;;;;;;;;25.50;20.75;;;;;7.85;55.26;101169.16;4994179;28;45405;-76
2022/03/10 02:36:07;;;;;;;;;21.00;17.00;;;;;7.81;55.43;101163.00;4994818;28;46343;-76
2022/03/10 02:38:33;;;;;;;;;20.25;18.50;;;;;7.82;54.98;101170.03;4992459;28;45812;-76
2022/03/10 02:40:58;;;;;;;;;25.00;19.00;;;;;7.81;55.67;101167.41;4975114;28;45381;-76
2022/03/10 02:43:24;;;;;;;;;26.25;21.75;;;;;7.78;55.33;101173.53;4980528;28;45429;-76
2022/03/10 02:45:50;;;;;;;;;24.50;19.50;;;;;7.75;54.97;101173.53;4985672;28;45622;-76
2022/03/10 02:48:16;;;;;;;;;20.00;17.25;;;;;7.73;55.11;101171.75;4998615;28;45449;-76
2022/03/10 02:50:42;;;;;;;;;16.75;15.75;;;;;7.71;55.36;101170.91;4979329;28;45489;-78
2022/03/10 02:53:08;;;;;;;;;24.25;16.00;;;;;7.64;55.56;101165.63;4977365;28;45548;-77
2022/03/10 02:55:34;;;;;;;;;24.00;18.50;;;;;7.69;55.07;101177.91;4989824;28;46121;-76
2022/03/10 02:58:00;;;;;;;;;18.75;18.75;;;;;7.66;55.14;101178.78;4981341;28;45452;-76
2022/03/10 03:00:26;;;;;;;;;23.00;21.50;;;;;7.65;54.96;101180.56;4997608;28;45506;-76
2022/03/10 03:02:52;;;;;;;;;30.25;23.00;;;;;7.58;55.78;101173.50;4979585;28;45310;-77
2022/03/10 03:05:17;;;;;;;;;20.00;16.50;;;;;7.58;55.00;101181.41;4998320;28;45412;-76
2022/03/10 03:07:44;;;;;;;;;21.25;16.00;;;;;7.57;55.59;101179.63;4997141;28;45473;-76
2022/03/10 03:10:10;;;;;;;;;18.25;15.00;;;;;7.54;55.33;101171.75;4996906;28;45507;-77
2022/03/10 03:12:46;;;;;;;;;21.50;16.75;;;;;7.49;56.21;101173.50;4996395;28;45330;-76
2022/03/10 03:15:11;;;;;;;;;25.75;21.25;;;;;7.51;55.34;101190.16;4986197;28;46183;-77
2022/03/10 03:17:36;;;;;;;;;16.25;16.25;;;;;7.47;55.86;101198.94;4978509;28;45419;-76
2022/03/10 03:20:04;;;;;;;;;12.50;10.00;;;;;7.46;55.97;101194.53;4994258;28;45470;-76
2022/03/10 03:22:30;;;;;;;;;24.00;18.75;;;;;7.42;55.83;101190.13;5016868;28;45631;-76
2022/03/10 03:24:55;;;;;;;;;16.00;15.25;;;;;7.38;55.47;101193.63;5017176;28;45379;-77
2022/03/10 03:27:21;;;;;;;;;17.50;15.25;;;;;7.39;55.62;101198.00;4994184;28;45453;-75
2022/03/10 03:29:47;;;;;;;;;23.50;15.00;;;;;7.38;55.41;101198.88;4995291;28;45329;-76
2022/03/10 03:32:13;;;;;;;;;18.75;16.50;;;;;7.34;56.58;101194.50;4997579;28;45424;-76
2022/03/10 03:34:39;;;;;;;;;24.75;18.00;;;;;7.31;56.42;101192.72;4996934;28;45423;-77
2022/03/10 03:37:04;;;;;;;;;22.00;16.75;;;;;7.32;56.51;101198.84;4997091;28;45350;-78
2022/03/10 03:39:30;;;;;;;;;21.00;15.00;;;;;7.25;56.53;101190.94;4983819;28;45394;-76
2022/03/10 03:41:55;;;;;;;;;20.50;14.75;;;;;7.23;56.18;101200.59;4977554;28;45393;-76
2022/03/10 03:44:21;;;;;;;;;18.00;18.00;;;;;7.26;56.98;101200.59;4976849;28;45931;-76
2022/03/10 03:46:46;;;;;;;;;18.50;15.50;;;;;7.23;56.48;101200.59;4977034;28;45458;-76
2022/03/10 03:49:12;;;;;;;;;28.75;20.00;;;;;7.21;56.51;101204.97;4977637;28;45520;-76
2022/03/10 03:51:38;;;;;;;;;18.25;14.00;;;;;7.22;56.92;101204.09;4977142;28;45616;-76
2022/03/10 03:54:05;;;;;;;;;18.25;16.50;;;;;7.18;56.33;101202.34;4979240;28;45442;-76
2022/03/10 03:56:30;;;;;;;;;11.00;9.25;;;;;7.15;56.86;101206.69;4997985;28;45458;-77
2022/03/10 03:58:55;;;;;;;;;20.75;16.00;;;;;7.10;56.86;101196.16;4993264;28;45433;-76
2022/03/10 04:01:21;;;;;;;;;23.00;18.00;;;;;7.09;56.35;101204.91;4977306;28;46388;-76
2022/03/10 04:03:46;;;;;;;;;15.00;14.00;;;;;7.07;56.88;101209.28;4957961;28;45546;-76
2022/03/10 04:06:11;;;;;;;;;9.50;7.50;;;;;7.05;57.00;101205.78;4977053;28;45441;-77
2022/03/10 04:08:37;;;;;;;;;18.25;18.25;;;;;7.05;57.63;101217.16;4983133;28;45603;-77
2022/03/10 04:11:03;;;;;;;;;26.50;20.25;;;;;7.03;57.21;101210.13;4996431;28;45397;-77
2022/03/10 04:13:28;;;;;;;;;14.75;12.50;;;;;7.02;57.52;101216.28;4996248;28;46431;-75
2022/03/10 04:15:54;;;;;;;;;14.00;13.00;;;;;7.00;57.37;101218.00;4977411;28;45380;-76
2022/03/10 04:18:19;;;;;;;;;17.00;9.25;;;;;6.98;57.01;101215.38;4984893;28;45456;-76
2022/03/10 04:20:46;;;;;;;;;22.50;20.00;;;;;6.96;57.13;101216.25;4997627;28;45601;-76
2022/03/10 04:23:12;;;;;;;;;19.75;16.25;;;;;6.93;57.47;101212.72;4979216;28;47208;-76
2022/03/10 04:25:38;;;;;;;;;26.50;21.50;;;;;6.87;57.57;101217.94;4995902;28;45396;-76
2022/03/10 04:28:04;;;;;;;;;22.50;15.50;;;;;6.87;57.56;101219.72;4990997;28;45460;-76
2022/03/10 04:30:32;;;;;;;;;20.50;15.50;;;;;6.82;57.73;101217.06;4995783;28;45302;-76
2022/03/10 04:32:58;;;;;;;;;31.25;19.00;;;;;6.86;57.74;101225.81;4991161;28;46070;-76
2022/03/10 04:35:23;;;;;;;;;22.25;18.75;;;;;6.78;58.31;101215.28;4978194;28;45598;-76
2022/03/10 04:37:51;;;;;;;;;20.50;20.50;;;;;6.82;57.23;101226.66;4965424;28;45412;-75
2022/03/10 04:40:17;;;;;;;;;23.50;20.75;;;;;6.82;58.37;101229.28;5000232;28;45405;-76
2022/03/10 04:42:43;;;;;;;;;24.25;22.25;;;;;6.76;58.01;101219.66;4997870;28;45432;-76
2022/03/10 04:45:09;;;;;;;;;21.25;15.50;;;;;6.78;57.57;101236.28;4978030;28;45391;-76
2022/03/10 04:47:35;;;;;;;;;17.50;17.50;;;;;6.76;58.36;101223.16;4977208;28;45513;-76
2022/03/10 04:50:01;;;;;;;;;22.00;21.00;;;;;6.70;58.13;101219.63;4976404;28;45445;-77
2022/03/10 04:52:27;;;;;;;;;20.50;18.75;;;;;6.71;58.05;101219.63;4977488;28;45476;-77
2022/03/10 04:54:53;;;;;;;;;17.50;15.50;;;;;6.66;58.78;101208.19;4991196;28;45303;-77
2022/03/10 04:57:19;;;;;;;;;17.00;14.50;;;;;6.68;58.22;101222.22;5015799;28;45463;-76
2022/03/10 04:59:44;;;;;;;;;21.50;20.00;;;;;6.69;58.78;101228.34;4997451;28;45491;-75
2022/03/10 05:02:09;;;;;;;;;19.00;15.25;;;;;6.65;58.67;101226.56;4995960;28;45372;-76
2022/03/10 05:04:35;;;;;;;;;26.00;20.50;;;;;6.59;58.94;101214.28;4977837;28;45792;-76
2022/03/10 05:07:00;;;;;;;;;18.50;15.25;;;;;6.57;59.03;101213.38;4978022;28;45346;-76
2022/03/10 05:09:26;;;;;;;;;26.00;15.25;;;;;6.59;58.95;101219.56;4995548;28;45357;-76
2022/03/10 05:11:51;;;;;;;;;21.50;18.75;;;;;6.51;59.27;101211.63;4995402;28;45528;-78
2022/03/10 05:14:16;;;;;;;;;23.50;21.00;;;;;6.53;59.02;101212.50;4980711;28;45470;-75
2022/03/10 05:16:42;;;;;;;;;28.75;23.50;;;;;6.51;59.29;101208.09;4975372;28;45496;-78
2022/03/10 05:19:07;;;;;;;;;21.75;16.00;;;;;6.51;59.79;101214.25;4975816;28;45844;-77
2022/03/10 05:21:32;;;;;;;;;15.25;11.75;;;;;6.46;59.39;101205.44;4976417;28;45406;-78
2022/03/10 05:23:58;;;;;;;;;20.75;16.50;;;;;6.47;59.42;101215.09;4975933;28;45374;-77
2022/03/10 05:26:23;;;;;;;;;18.25;14.00;;;;;6.45;59.17;101216.81;4976318;28;45429;-77
2022/03/10 05:28:48;;;;;;;;;21.25;17.50;;;;;6.42;59.98;101208.91;4984427;28;45386;-77
2022/03/10 05:31:14;;;;;;;;;18.50;15.00;;;;;6.38;59.42;101207.16;4995097;28;46022;-77
2022/03/10 05:33:39;;;;;;;;;21.75;18.75;;;;;6.38;59.85;101218.50;4995952;28;45426;-77
2022/03/10 05:36:04;;;;;;;;;25.25;16.00;;;;;6.36;59.96;101212.38;4994752;28;46010;-76
2022/03/10 05:38:30;;;;;;;;;22.75;19.50;;;;;6.34;59.71;101214.09;4985255;28;45483;-77
2022/03/10 05:40:55;;;;;;;;;24.25;21.75;;;;;6.33;59.60;101219.34;4975495;28;45421;-77
2022/03/10 05:43:21;;;;;;;;;15.25;13.00;;;;;6.29;59.80;101213.19;4981173;28;45396;-76
2022/03/10 05:45:46;;;;;;;;;23.50;19.50;;;;;6.28;60.19;101226.31;4995257;28;45411;-76
2022/03/10 05:48:12;;;;;;;;;16.00;14.00;;;;;6.29;60.10;101222.84;4995354;28;45555;-74
2022/03/10 05:50:37;;;;;;;;;33.00;23.75;;;;;6.25;60.67;101221.03;4976642;28;47614;-76
2022/03/10 05:53:03;;;;;;;;;25.00;20.00;;;;;6.22;60.23;101225.41;4994930;28;45326;-76
2022/03/10 05:55:29;;;;;;;;;15.00;15.00;;;;;6.23;60.46;101226.28;4996318;28;45429;-76
2022/03/10 05:57:55;;;;;;;;;20.50;18.25;;;;;6.21;60.58;101221.00;4995095;28;45659;-77
2022/03/10 06:00:21;;;;;;;;;22.50;18.00;;;;;6.23;60.45;101218.41;4998370;28;46533;-75
2022/03/10 06:02:46;;;;;;;;;23.50;18.25;;;;;6.23;60.77;101229.78;4996302;28;45487;-80
2022/03/10 06:05:11;;;;;;;;;19.00;16.50;;;;;6.22;60.77;101232.38;5000742;28;45917;-81
2022/03/10 06:07:37;;;;;;;;;21.75;16.50;;;;;6.23;61.24;101234.16;4984626;28;45681;-81
2022/03/10 06:10:03;;;;;;;;;16.75;15.00;;;;;6.23;61.01;101234.16;4976218;28;46088;-82
2022/03/10 06:12:29;;;;;;;;;18.50;17.25;;;;;6.18;60.81;101218.38;4983879;28;45475;-81
2022/03/10 06:14:56;;;;;;;;;29.75;20.75;;;;;6.13;61.04;101212.19;4997014;28;45384;-81
2022/03/10 06:17:22;;;;;;;;;22.00;17.50;;;;;6.21;61.25;101231.50;4995663;28;45383;-80
2022/03/10 06:19:48;;;;;;;;;25.25;21.75;;;;;6.25;60.84;101226.28;4996972;28;45441;-80
2022/03/10 06:22:21;;;;;;;;;18.25;18.00;;;;;6.26;60.84;101225.44;5002804;28;45517;-81
2022/03/10 06:24:47;;;;;;;;;24.00;17.50;;;;;6.27;61.34;101233.31;4996574;28;45461;-80
2022/03/10 06:27:14;;;;;;;;;17.50;17.00;;;;;6.42;60.73;101223.78;4991716;28;45348;-82
2022/03/10 06:29:40;;;;;;;;;21.75;18.50;;;;;6.79;59.57;101229.28;4986467;28;46327;-81
2022/03/10 06:32:06;;;;;;;;;21.25;20.00;;;;;7.19;59.27;101234.75;4983143;28;45445;-82
2022/03/10 06:34:31;;;;;;;;;22.00;20.00;;;;;7.60;58.51;101229.63;4987687;28;45418;-81
2022/03/10 06:36:57;;;;;;;;;21.00;21.00;;;;;8.00;57.27;101232.34;5004738;28;45584;-81
2022/03/10 06:39:23;;;;;;;;;26.00;21.50;;;;;8.39;55.96;101235.00;5003236;28;45501;-80
2022/03/10 06:41:49;;;;;;;;;28.00;19.50;;;;;8.51;55.54;101232.38;5002432;28;45442;-81
2022/03/10 06:44:14;;;;;;;;;29.75;23.50;;;;;8.83;55.14;101230.56;4997313;28;45488;-81
2022/03/10 06:46:40;;;;;;;;;27.00;20.00;;;;;9.39;53.46;101237.41;4997773;28;45677;-78
2022/03/10 06:49:05;;;;;;;;;24.50;21.25;;;;;9.84;51.81;101225.72;5000923;28;45776;-77
2022/03/10 06:51:31;;;;;;;;;23.50;23.50;;;;;10.33;50.68;101228.03;5000318;28;45429;-77
2022/03/10 06:53:57;;;;;;;;;25.75;21.25;;;;;10.88;49.79;101220.44;4983603;28;45469;-77
2022/03/10 06:56:23;;;;;;;;;21.00;19.50;;;;;11.42;48.41;101225.97;5007303;28;45681;-77
2022/03/10 06:58:48;;;;;;;;;26.00;20.00;;;;;11.86;47.46;101218.31;4985854;28;46052;-77
2022/03/10 07:01:13;;;;;;;;;23.75;19.00;;;;;12.10;46.60;101217.09;4991068;28;45330;-77
2022/03/10 07:03:39;;;;;;;;;21.75;21.00;;;;;12.30;46.33;101224.69;4989980;28;45528;-77
2022/03/10 07:06:04;;;;;;;;;29.75;26.00;;;;;12.26;45.86;101229.16;4996870;28;45590;-77
2022/03/10 07:08:30;;;;;;;;;24.50;21.50;;;;;12.71;44.78;101230.19;4987275;28;45422;-77
2022/03/10 07:10:55;;;;;;;;;29.25;25.50;;;;;13.21;44.17;101225.66;4989396;28;45429;-77
2022/03/10 07:13:21;;;;;;;;;27.25;21.75;;;;;13.85;43.09;101228.69;4963505;28;45505;-76
2022/03/10 07:15:46;;;;;;;;;24.50;19.00;;;;;14.37;41.72;101231.00;4991207;28;45437;-78
2022/03/10 07:18:12;;;;;;;;;25.50;21.75;;;;;14.94;40.81;101229.53;4989724;28;45590;-78
2022/03/10 07:20:37;;;;;;;;;29.00;24.50;;;;;15.58;39.65;101224.13;4996982;28;45404;-77
2022/03/10 07:23:02;;;;;;;;;32.00;27.75;;;;;16.07;38.40;101228.84;4999245;28;45424;-77
2022/03/10 07:25:28;;;;;;;;;32.00;23.00;;;;;16.46;38.00;101233.78;4998728;28;45471;-77
2022/03/10 07:27:53;;;;;;;;;22.00;19.00;;;;;16.98;37.09;101236.44;4996754;28;46279;-77
2022/03/10 07:30:19;;;;;;;;;25.75;23.00;;;;;17.25;36.18;101225.66;4992218;28;45441;-78
2022/03/10 07:32:44;;;;;;;;;22.00;18.75;;;;;17.51;35.50;101224.69;4989553;28;45529;-77
2022/03/10 07:35:10;;;;;;;;;27.00;26.00;;;;;18.13;35.06;101232.94;4969329;28;45438;-77
2022/03/10 07:37:35;;;;;;;;;14.75;14.75;;;;;18.33;34.42;101230.31;4989899;28;45417;-78
2022/03/10 07:40:00;;;;;;;;;27.25;22.75;;;;;18.79;33.84;101232.81;4977183;28;45520;-78
2022/03/10 07:42:26;;;;;;;;;26.25;23.75;;;;;18.99;33.24;101231.94;4976188;28;45492;-77
2022/03/10 07:44:52;;;;;;;;;33.50;22.00;;;;;19.29;32.66;101220.78;4979859;28;45634;-77
2022/03/10 07:47:18;;;;;;;;;21.25;16.75;;;;;19.32;32.37;101226.84;4979642;28;45353;-77
2022/03/10 07:49:43;;;;;;;;;7.75;2.00;;;;;19.50;32.36;101230.50;4989002;28;45477;-76
2022/03/10 07:52:08;;;;;;;;;18.50;14.50;;;;;19.70;31.81;101226.00;4995795;28;45441;-76
2022/03/10 07:54:34;;;;;;;;;28.50;27.75;;;;;19.75;32.02;101233.81;4991411;28;45539;-78
2022/03/10 07:57:00;;;;;;;;;26.00;24.75;;;;;19.91;31.36;101229.50;4981320;28;45442;-76
2022/03/10 07:59:25;;;;;;;;;19.25;16.75;;;;;20.02;31.19;101228.97;4981119;28;45746;-78
2022/03/10 08:01:51;;;;;;;;;19.00;16.25;;;;;20.15;31.09;101226.56;4969678;28;45572;-79
2022/03/10 08:04:16;;;;;;;;;26.00;21.00;;;;;20.15;30.90;101221.19;4994416;28;45375;-78
2022/03/10 08:06:42;;;;;;;;;22.25;18.25;;;;;20.17;30.88;101224.66;4989560;28;45390;-77
2022/03/10 08:09:10;;;;;;;;;26.75;20.25;;;;;20.21;30.54;101231.63;4980361;28;45456;-78
2022/03/10 08:11:37;;;;;;;;;20.00;17.75;;;;;20.31;30.96;101232.00;4958691;28;45496;-78
2022/03/10 08:14:04;;;;;;;;;20.00;18.50;;;;;20.26;31.04;101223.34;4980260;28;45336;-77
2022/03/10 08:16:30;;;;;;;;;21.25;20.50;;;;;20.62;30.76;101231.31;4981572;28;45439;-77
2022/03/10 08:18:55;;;;;;;;;22.00;17.25;;;;;20.87;30.14;101230.06;4987022;28;45289;-77
2022/03/10 08:21:21;;;;;;;;;20.75;18.50;;;;;20.95;29.95;101217.06;4990308;28;45324;-78
2022/03/10 08:23:47;;;;;;;;;33.50;28.75;;;;;21.29;29.71;101217.94;4994829;28;45495;-76
2022/03/10 08:26:13;;;;;;;;;16.25;12.75;;;;;21.53;29.46;101226.50;4982503;28;46214;-76
2022/03/10 08:28:38;;;;;;;;;16.75;15.25;;;;;21.74;28.80;101235.19;4993938;28;45381;-77
2022/03/10 08:31:07;;;;;;;;;22.25;20.75;;;;;21.88;28.75;101228.13;4991344;28;45497;-77
2022/03/10 08:33:32;;;;;;;;;15.00;8.00;;;;;21.80;28.37;101224.09;4991310;28;45424;-77
2022/03/10 08:35:58;;;;;;;;;29.50;24.00;;;;;22.05;28.32;101225.34;4998261;28;46275;-77
2022/03/10 08:38:25;;;;;;;;;18.25;16.50;;;;;22.09;28.64;101212.56;4990481;28;45381;-80
2022/03/10 08:40:51;;;;;;;;;27.50;21.00;;;;;21.89;28.51;101208.38;4978407;28;45440;-81
2022/03/10 08:43:17;;;;;;;;;27.75;26.00;;;;;22.04;28.28;101218.22;4980181;28;45575;-75
2022/03/10 08:45:42;;;;;;;;;21.00;17.00;;;;;22.14;28.46;101203.28;4983438;28;46010;-76
2022/03/10 08:48:08;;;;;;;;;38.75;31.50;;;;;22.21;27.95;101203.78;4995321;28;45486;-77
2022/03/10 08:50:34;;;;;;;;;19.50;15.50;;;;;22.47;28.17;101212.16;4997289;28;45519;-77
2022/03/10 08:53:00;;;;;;;;;38.00;27.75;;;;;22.90;27.92;101204.19;4998843;28;45492;-76
2022/03/10 08:55:25;;;;;;;;;21.25;19.75;;;;;23.01;27.31;101208.88;5004515;28;46150;-77
2022/03/10 08:57:51;;;;;;;;;32.25;28.00;;;;;22.92;27.42;101204.06;4995671;28;45564;-76
2022/03/10 09:00:20;;;;;;;;;23.50;18.25;;;;;23.00;27.55;101204.44;4992011;28;45376;-77
2022/03/10 09:02:46;;;;;;;;;21.00;20.50;;;;;23.07;26.94;101203.13;4988480;28;45516;-77
2022/03/10 09:05:11;;;;;;;;;26.25;21.25;;;;;23.45;26.80;101198.97;4978181;28;45488;-77
2022/03/10 09:07:37;;;;;;;;;16.50;12.75;;;;;23.74;26.60;101197.06;4988565;28;45541;-81
2022/03/10 09:10:04;;;;;;;;;19.75;17.25;;;;;23.93;26.21;101197.63;4979812;28;45644;-82
2022/03/10 09:12:30;;;;;;;;;18.75;16.75;;;;;24.36;26.46;101201.09;4976215;28;45662;-81
2022/03/10 09:14:56;;;;;;;;;25.00;21.25;;;;;24.52;25.99;101196.38;4962455;28;46258;-80
2022/03/10 09:17:22;;;;;;;;;25.25;22.00;;;;;24.41;25.67;101197.09;4976312;28;45875;-77
2022/03/10 09:19:49;;;;;;;;;18.00;16.00;;;;;24.54;26.22;101197.13;4976979;28;45479;-77
2022/03/10 09:22:15;;;;;;;;;23.00;22.50;;;;;24.95;25.85;101200.66;4976234;28;45436;-76
2022/03/10 09:24:40;;;;;;;;;48.25;45.00;;;;;25.27;25.14;101192.91;4977108;28;46079;-77
2022/03/10 09:27:06;;;;;;;;;28.50;22.25;;;;;25.40;24.98;101197.47;4981414;28;45362;-77
2022/03/10 09:29:32;;;;;;;;;23.50;20.50;;;;;25.46;24.79;101191.59;4976978;28;45587;-77
2022/03/10 09:31:57;;;;;;;;;82.00;69.00;;;;;25.45;24.66;101198.00;4983479;28;45481;-80
2022/03/10 09:34:23;;;;;;;;;21.50;20.00;;;;;25.59;24.89;101200.56;4984431;28;45378;-79
2022/03/10 09:36:49;;;;;;;;;21.25;20.25;;;;;25.68;24.47;101199.00;4985547;28;45487;-77
2022/03/10 09:39:15;;;;;;;;;13.00;13.00;;;;;25.30;24.82;101192.72;4987457;28;45461;-77
2022/03/10 09:41:41;;;;;;;;;18.00;16.75;;;;;24.94;24.86;101197.06;4985385;28;45788;-77
2022/03/10 09:44:17;;;;;;;;;28.50;28.50;;;;;24.50;25.60;101195.59;4991592;28;45984;-77
2022/03/10 09:46:44;;;;;;;;;28.50;21.00;;;;;24.55;25.55;101189.88;4986919;28;45522;-80
2022/03/10 09:49:10;;;;;;;;;19.00;16.00;;;;;24.45;25.84;101192.38;4980014;28;45599;-79
2022/03/10 09:51:37;;;;;;;;;21.00;20.75;;;;;24.71;25.68;101187.03;4980997;28;45422;-80
2022/03/10 09:54:03;;;;;;;;;20.50;16.25;;;;;24.99;25.70;101186.78;4974714;28;45523;-81
2022/03/10 09:56:30;;;;;;;;;16.50;14.75;;;;;24.96;25.26;101172.63;4964231;28;45473;-79
2022/03/10 09:58:55;;;;;;;;;17.75;16.25;;;;;24.87;25.61;101195.78;4991443;28;45423;-81
2022/03/10 10:01:21;;;;;;;;;14.25;13.25;;;;;24.81;25.34;101188.13;4997692;28;45384;-81
2022/03/10 10:03:46;;;;;;;;;16.00;15.75;;;;;24.46;26.58;101191.38;4995702;28;45493;-75
2022/03/10 10:06:12;;;;;;;;;19.25;19.25;;;;;24.33;26.23;101177.84;4996705;28;45429;-77
2022/03/10 10:08:39;;;;;;;;;9.50;7.00;;;;;24.51;26.08;101191.94;4999058;28;45472;-80
2022/03/10 10:11:05;;;;;;;;;15.00;14.25;;;;;24.36;26.43;101172.25;5003585;28;45363;-80
2022/03/10 10:13:34;;;;;;;;;17.25;15.00;;;;;24.39;26.10;101187.38;4972064;28;47682;-80
2022/03/10 10:16:06;;;;;;;;;8.25;8.25;;;;;24.29;26.01;101179.03;4981852;28;45463;-80
2022/03/10 10:18:32;;;;;;;;;16.50;13.50;;;;;24.42;26.39;101177.22;4977313;28;45594;-81
2022/03/10 10:20:59;;;;;;;;;16.75;16.25;;;;;24.29;26.67;101176.34;4975525;28;45583;-80
2022/03/10 10:23:29;;;;;;;;;9.00;9.00;;;;;24.26;26.12;101180.13;4980272;28;46303;-80
2022/03/10 10:25:59;;;;;;;;;20.25;18.25;;;;;24.19;27.47;101175.25;4983926;28;45279;-76
2022/03/10 10:28:32;;;;;;;;;17.25;14.00;;;;;24.80;26.21;101176.41;4988331;28;45528;-77
2022/03/10 10:31:05;;;;;;;;;9.75;9.75;;;;;25.23;25.46;101169.75;4980770;28;45481;-75
2022/03/10 10:33:33;;;;;;;;;7.00;7.00;;;;;25.37;25.49;101168.78;4993776;28;46547;-74
2022/03/10 10:36:14;;;;;;;;;16.00;16.00;;;;;25.45;25.55;101162.84;4990296;28;45890;-82
2022/03/10 10:38:41;;;;;;;;;12.50;11.00;;;;;25.43;25.55;101152.13;4982705;28;45484;-78
2022/03/10 10:41:18;;;;;;;;;13.00;10.50;;;;;25.29;25.61;101160.34;4974441;28;45643;-75
2022/03/10 10:43:49;;;;;;;;;10.00;7.50;;;;;25.08;26.25;101158.22;4983914;28;45532;-79
2022/03/10 10:46:43;;;;;;;;;10.50;10.50;;;;;25.32;26.02;101154.75;4988095;28;45472;-80
2022/03/10 10:49:14;;;;;;;;;9.25;9.25;;;;;25.51;25.70;101143.44;4980930;28;45533;-81
2022/03/10 10:51:45;;;;;;;;;12.50;9.00;;;;;25.67;25.65;101143.16;4979503;28;45396;-81
2022/03/10 10:54:34;;;;;;;;;11.00;10.00;;;;;25.53;25.50;101136.06;4991366;28;45461;-82
2022/03/10 10:57:07;;;;;;;;;5.25;5.00;;;;;25.52;25.28;101135.22;4983078;28;45437;-80
2022/03/10 10:59:36;;;;;;;;;15.25;9.50;;;;;25.32;25.55;101139.38;4964955;28;45752;-81
2022/03/10 11:02:10;;;;;;;;;10.00;9.00;;;;;25.27;26.26;101130.72;4964749;28;45408;-80
2022/03/10 11:04:41;;;;;;;;;7.75;5.75;;;;;25.17;26.30;101124.25;4967499;28;47686;-82
2022/03/10 11:07:09;;;;;;;;;8.00;5.50;;;;;24.94;26.13;101123.22;4968419;28;46338;-80
2022/03/10 11:09:35;;;;;;;;;5.50;5.50;;;;;24.58;26.65;101125.75;4993511;28;45530;-80
2022/03/10 11:12:00;;;;;;;;;6.00;6.00;;;;;24.58;26.89;101123.03;4986858;28;45631;-81
2022/03/10 11:14:26;;;;;;;;;5.50;5.00;;;;;24.82;26.82;101116.84;4991715;28;46304;-81
2022/03/10 11:16:52;;;;;;;;;7.25;6.50;;;;;24.65;26.97;101118.06;4985742;28;45409;-78